Rocky Mountain Metropolitan Airport
KBJC : now visible

Airfield :











YOU CAN JOIN US ON...

 
LOGIN :

Register | Disclaimer

   EN    FR    IT 

 









Legend :    VFR   Marginal VFR   IFR   Intensive IFR   Very Intensive IFR
Visi :
Ceiling :
>= 8 km
>= 3000ft
5 to 8 km
1000 to 3000 ft
1500m to 5 km
500 to 1000 ft
800 to 1500m
200 to 500 ft
< 800m
< 200 ft
Symbols :   Thunderstorms  Fog  Heavy snow  Heavy precipitations  Wind > 20 kt






- Airport Elevation : 5673 ft


KBJC - Rocky Mountain Metropolitan

CURRENT METAR :
  • 081945Z 29024G28KT 10SM FEW080 SCT180 13/M03 A2968

EXPIRED METARs :
  • 081845Z 29013KT 10SM FEW080 BKN180 12/M03 A2973
  • 081807Z 27026G30KT 10SM FEW080 BKN180 12/M03 A2974

TAF KBJC
Valid from the 08 at 20:00 until the 09 at 18:00 UTC


082011Z 0820/0918 29015G25KT P6SM FEW080 SCT180
FM082200 32009KT P6SM SCT050 BKN080
FM090300 29012G22KT P6SM SCT070 BKN120
FM090900 01011KT P6SM FEW010 SCT030 BKN050
PROB30 0909/0912 -SN BKN030
FM091300 13006KT P6SM SCT025 BKN030



MET'MAP, your aeronautical weather chart ! - Copyright ORBIFLY December 2007 - Disclaimer

ORBIFLY MET'MAP TEAM :

Programming & Development : Alexandra Zaïnal
Concept & original design : Baudouin d'Aumeries
Assistance for programming : Marc-Olivier Méhu
Technical & hardware support : Manuel Goepfert

Contact : metmap@orbifly.com




SOURCES & CREDITS :

   NOAA       Earth
Advisory